Yellow Mule RAWS (NWS)

Jump to table bottom
Date/Time Wind Direction Wind Speed knots Wind Gust knots RH % Accumulated Precip Inches Air Temp Fahrenheit
2023-06-08 10:04 N 3 5 84 5.82 48
2023-06-08 09:04 NNW 3 8 100 5.82 44
2023-06-08 08:04 NNE 2 4 96 5.82 47
2023-06-08 07:04 NNE 3 8 99 5.82 46
2023-06-08 06:04 NNE 3 9 96 5.82 45
2023-06-08 05:04 NNE 3 6 86 5.82 45
2023-06-08 04:04 N 3 6 80 5.82 46
2023-06-08 03:04 NNW 4 5 81 5.82 45
2023-06-08 02:04 NNW 4 6 81 5.82 46
2023-06-08 01:04 NE 2 7 84 5.82 45
2023-06-08 00:04 SE 2 4 82 5.82 45
2023-06-07 23:04 NE 3 10 78 5.82 45
2023-06-07 22:04 SW 10 13 78 5.82 46
2023-06-07 21:04 NW 7 20 68 5.82 48
2023-06-07 20:04 NW 10 17 74 5.82 48
2023-06-07 19:04 NNE 3 8 47 5.82 59
2023-06-07 18:04 E 2 13 57 5.82 54
2023-06-07 17:04 NNW 3 14 46 5.82 61
2023-06-07 16:04 NNE 7 13 53 5.82 58
2023-06-07 15:04 NNW 10 15 56 5.82 54
2023-06-07 14:04 WSW 8 18 55 5.82 55
2023-06-07 13:04 NNE 2 9 60 5.82 55
2023-06-07 12:04 N 2 6 61 5.82 57
2023-06-07 11:04 N 3 5 65 5.82 57
2023-06-07 10:04 N 2 3 76 5.82 54
2023-06-07 09:04 S 3 6 63 5.82 54
2023-06-07 08:04 SE 2 7 65 5.82 50
2023-06-07 07:04 S 5 7 80 5.82 45
2023-06-07 06:04 SSE 5 9 78 5.82 45
2023-06-07 05:04 SSE 6 10 75 5.82 45
2023-06-07 04:04 SSE 6 9 77 5.82 45
2023-06-07 03:04 S 5 6 78 5.82 44
2023-06-07 02:04 SSE 4 9 79 5.82 45
2023-06-07 01:04 S 6 8 96 5.82 43
2023-06-07 00:04 ENE 5 6 88 5.82 43
2023-06-06 23:04 NNE 4 7 88 5.82 44
2023-06-06 22:04 NW 5 10 83 5.82 45
2023-06-06 21:04 SSW 9 17 71 5.82 47
2023-06-06 20:04 SSE 5 9 85 5.82 48
2023-06-06 19:04 N 3 8 87 5.82 48
2023-06-06 18:04 NW 7 10 74 5.82 48
2023-06-06 17:04 N 7 13 88 5.82 48
2023-06-06 16:04 NNE 8 19 69 5.81 52
2023-06-06 15:04 N 9 12 64 5.81 55
2023-06-06 14:04 NNE 5 10 51 5.81 58
2023-06-06 13:04 E 3 8 46 5.81 60
2023-06-06 12:04 S 5 11 53 5.81 55
2023-06-06 11:04 ESE 5 12 45 5.81 60
2023-06-06 10:04 ESE 3 8 49 5.81 60
2023-06-06 09:04 SE 4 7 59 5.81 55